Terminal Aerodrome Forecast
Issued by NWS Shreveport, LA

Home | Current Version | Previous Version | Text Only | Print | Product List | Glossary On
Versions: 1 2 3 4 5 6 7 8 9 10 11 12 13 14
910
FTUS44 KSHV 271126
TAFTXK
TAF
KTXK 271126Z 2712/2812 VRB03KT P6SM BKN050
      TEMPO 2714/2718 12006KT P6SM SCT060 SCT250
     FM271800 12006KT P6SM SCT060 SCT250
     FM280000 13004KT P6SM SCT250
     FM280600 15004KT P6SM SCT250=

USA.gov is the U.S. government's official web portal to all federal, state and local government web resources and services.